sensor_id;sensor_type;location;lat;lon;timestamp;P1;durP1;ratioP1;P2;durP2;ratioP2
7669;SDS011;3877;42.562;27.636;2022-09-09T00:00:54;6.30;;;2.55;;
7669;SDS011;3877;42.562;27.636;2022-09-09T00:03:30;6.05;;;2.50;;
7669;SDS011;3877;42.562;27.636;2022-09-09T00:06:08;5.63;;;2.35;;
7669;SDS011;3877;42.562;27.636;2022-09-09T00:08:45;4.57;;;2.42;;
7669;SDS011;3877;42.562;27.636;2022-09-09T00:11:24;2.85;;;2.55;;
7669;SDS011;3877;42.562;27.636;2022-09-09T00:13:55;6.38;;;2.70;;
7669;SDS011;3877;42.562;27.636;2022-09-09T00:16:25;6.28;;;3.10;;
7669;SDS011;3877;42.562;27.636;2022-09-09T00:19:00;3.55;;;2.70;;
7669;SDS011;3877;42.562;27.636;2022-09-09T00:21:34;3.97;;;2.55;;
7669;SDS011;3877;42.562;27.636;2022-09-09T00:24:08;6.00;;;3.00;;
7669;SDS011;3877;42.562;27.636;2022-09-09T00:26:40;7.00;;;2.65;;
7669;SDS011;3877;42.562;27.636;2022-09-09T00:29:14;4.03;;;2.65;;
7669;SDS011;3877;42.562;27.636;2022-09-09T00:31:49;3.38;;;2.90;;
7669;SDS011;3877;42.562;27.636;2022-09-09T00:34:21;6.85;;;2.50;;
7669;SDS011;3877;42.562;27.636;2022-09-09T00:36:53;3.72;;;2.30;;
7669;SDS011;3877;42.562;27.636;2022-09-09T00:39:34;3.00;;;2.70;;
7669;SDS011;3877;42.562;27.636;2022-09-09T00:42:10;10.10;;;3.50;;
7669;SDS011;3877;42.562;27.636;2022-09-09T00:44:46;4.03;;;2.90;;
7669;SDS011;3877;42.562;27.636;2022-09-09T00:47:29;5.10;;;2.72;;
7669;SDS011;3877;42.562;27.636;2022-09-09T00:50:11;4.85;;;2.70;;
7669;SDS011;3877;42.562;27.636;2022-09-09T00:52:52;7.22;;;2.60;;
7669;SDS011;3877;42.562;27.636;2022-09-09T00:55:31;3.47;;;2.63;;
7669;SDS011;3877;42.562;27.636;2022-09-09T00:58:06;4.03;;;2.70;;
7669;SDS011;3877;42.562;27.636;2022-09-09T01:00:35;3.97;;;3.00;;
7669;SDS011;3877;42.562;27.636;2022-09-09T01:03:21;4.63;;;2.72;;
7669;SDS011;3877;42.562;27.636;2022-09-09T01:08:46;4.43;;;2.72;;
7669;SDS011;3877;42.562;27.636;2022-09-09T01:11:26;4.97;;;3.03;;
7669;SDS011;3877;42.562;27.636;2022-09-09T01:14:00;3.30;;;2.65;;
7669;SDS011;3877;42.562;27.636;2022-09-09T01:16:36;3.15;;;2.80;;
7669;SDS011;3877;42.562;27.636;2022-09-09T01:19:04;3.72;;;2.70;;
7669;SDS011;3877;42.562;27.636;2022-09-09T01:21:39;5.63;;;2.70;;
7669;SDS011;3877;42.562;27.636;2022-09-09T01:24:16;4.25;;;3.00;;
7669;SDS011;3877;42.562;27.636;2022-09-09T01:26:54;4.38;;;2.80;;
7669;SDS011;3877;42.562;27.636;2022-09-09T01:29:25;3.95;;;2.47;;
7669;SDS011;3877;42.562;27.636;2022-09-09T01:31:54;3.60;;;2.85;;
7669;SDS011;3877;42.562;27.636;2022-09-09T01:34:23;5.57;;;2.90;;
7669;SDS011;3877;42.562;27.636;2022-09-09T01:36:53;5.45;;;2.95;;
7669;SDS011;3877;42.562;27.636;2022-09-09T01:39:26;4.90;;;3.00;;
7669;SDS011;3877;42.562;27.636;2022-09-09T01:41:55;3.85;;;2.38;;
7669;SDS011;3877;42.562;27.636;2022-09-09T01:44:23;4.27;;;2.90;;
7669;SDS011;3877;42.562;27.636;2022-09-09T01:46:52;3.17;;;2.80;;
7669;SDS011;3877;42.562;27.636;2022-09-09T01:49:19;4.10;;;2.60;;
7669;SDS011;3877;42.562;27.636;2022-09-09T01:51:48;5.25;;;2.90;;
7669;SDS011;3877;42.562;27.636;2022-09-09T01:54:17;7.63;;;3.17;;
7669;SDS011;3877;42.562;27.636;2022-09-09T01:56:47;4.05;;;2.83;;
7669;SDS011;3877;42.562;27.636;2022-09-09T01:59:28;4.10;;;2.45;;
7669;SDS011;3877;42.562;27.636;2022-09-09T02:02:11;4.60;;;2.90;;
7669;SDS011;3877;42.562;27.636;2022-09-09T02:04:44;8.07;;;3.13;;
7669;SDS011;3877;42.562;27.636;2022-09-09T02:07:17;5.20;;;2.72;;
7669;SDS011;3877;42.562;27.636;2022-09-09T02:09:56;6.10;;;2.80;;
7669;SDS011;3877;42.562;27.636;2022-09-09T02:12:28;2.97;;;2.70;;
7669;SDS011;3877;42.562;27.636;2022-09-09T02:15:05;3.22;;;2.90;;
7669;SDS011;3877;42.562;27.636;2022-09-09T02:17:39;4.13;;;2.88;;
7669;SDS011;3877;42.562;27.636;2022-09-09T02:20:10;3.75;;;2.80;;
7669;SDS011;3877;42.562;27.636;2022-09-09T02:22:41;4.20;;;3.08;;
7669;SDS011;3877;42.562;27.636;2022-09-09T02:25:12;4.45;;;2.67;;
7669;SDS011;3877;42.562;27.636;2022-09-09T02:27:41;4.50;;;3.05;;
7669;SDS011;3877;42.562;27.636;2022-09-09T02:30:13;5.25;;;2.67;;
7669;SDS011;3877;42.562;27.636;2022-09-09T02:32:41;3.55;;;2.65;;
7669;SDS011;3877;42.562;27.636;2022-09-09T02:35:12;4.18;;;2.50;;
7669;SDS011;3877;42.562;27.636;2022-09-09T02:37:41;4.90;;;2.70;;
7669;SDS011;3877;42.562;27.636;2022-09-09T02:40:12;3.95;;;2.85;;
7669;SDS011;3877;42.562;27.636;2022-09-09T02:42:42;3.58;;;2.80;;
7669;SDS011;3877;42.562;27.636;2022-09-09T02:45:13;4.93;;;2.63;;
7669;SDS011;3877;42.562;27.636;2022-09-09T02:47:43;3.47;;;2.57;;
7669;SDS011;3877;42.562;27.636;2022-09-09T02:50:19;6.90;;;3.07;;
7669;SDS011;3877;42.562;27.636;2022-09-09T02:52:54;4.32;;;2.72;;
7669;SDS011;3877;42.562;27.636;2022-09-09T02:55:31;4.37;;;3.10;;
7669;SDS011;3877;42.562;27.636;2022-09-09T02:58:05;4.43;;;2.77;;
7669;SDS011;3877;42.562;27.636;2022-09-09T03:00:38;4.35;;;2.75;;
7669;SDS011;3877;42.562;27.636;2022-09-09T03:03:06;6.50;;;3.13;;
7669;SDS011;3877;42.562;27.636;2022-09-09T03:05:35;7.53;;;3.00;;
7669;SDS011;3877;42.562;27.636;2022-09-09T03:08:04;7.33;;;3.23;;
7669;SDS011;3877;42.562;27.636;2022-09-09T03:10:32;3.55;;;3.25;;
7669;SDS011;3877;42.562;27.636;2022-09-09T03:13:00;8.25;;;3.20;;
7669;SDS011;3877;42.562;27.636;2022-09-09T03:15:27;4.43;;;3.00;;
7669;SDS011;3877;42.562;27.636;2022-09-09T03:17:58;3.58;;;3.10;;
7669;SDS011;3877;42.562;27.636;2022-09-09T03:20:26;5.40;;;2.88;;
7669;SDS011;3877;42.562;27.636;2022-09-09T03:22:55;5.35;;;3.15;;
7669;SDS011;3877;42.562;27.636;2022-09-09T03:25:24;6.70;;;3.10;;
7669;SDS011;3877;42.562;27.636;2022-09-09T03:27:51;4.30;;;2.78;;
7669;SDS011;3877;42.562;27.636;2022-09-09T03:30:20;5.47;;;2.70;;
7669;SDS011;3877;42.562;27.636;2022-09-09T03:32:48;6.37;;;3.03;;
7669;SDS011;3877;42.562;27.636;2022-09-09T03:35:17;5.93;;;2.95;;
7669;SDS011;3877;42.562;27.636;2022-09-09T03:37:44;10.82;;;3.30;;
7669;SDS011;3877;42.562;27.636;2022-09-09T03:40:12;6.05;;;3.10;;
7669;SDS011;3877;42.562;27.636;2022-09-09T03:42:40;5.28;;;2.50;;
7669;SDS011;3877;42.562;27.636;2022-09-09T03:45:08;3.70;;;2.90;;
7669;SDS011;3877;42.562;27.636;2022-09-09T03:47:37;10.48;;;3.40;;
7669;SDS011;3877;42.562;27.636;2022-09-09T03:50:04;5.57;;;3.17;;
7669;SDS011;3877;42.562;27.636;2022-09-09T03:52:35;6.75;;;3.40;;
7669;SDS011;3877;42.562;27.636;2022-09-09T03:55:03;6.13;;;3.75;;
7669;SDS011;3877;42.562;27.636;2022-09-09T03:57:32;6.60;;;3.42;;
7669;SDS011;3877;42.562;27.636;2022-09-09T04:00:01;9.77;;;3.63;;
7669;SDS011;3877;42.562;27.636;2022-09-09T04:02:30;6.78;;;3.50;;
7669;SDS011;3877;42.562;27.636;2022-09-09T04:04:58;8.97;;;3.33;;
7669;SDS011;3877;42.562;27.636;2022-09-09T04:07:26;5.63;;;3.53;;
7669;SDS011;3877;42.562;27.636;2022-09-09T04:09:55;8.97;;;3.70;;
7669;SDS011;3877;42.562;27.636;2022-09-09T04:12:22;10.48;;;3.95;;
7669;SDS011;3877;42.562;27.636;2022-09-09T04:14:49;9.30;;;3.40;;
7669;SDS011;3877;42.562;27.636;2022-09-09T04:17:17;8.75;;;3.80;;
7669;SDS011;3877;42.562;27.636;2022-09-09T04:19:45;9.65;;;4.13;;
7669;SDS011;3877;42.562;27.636;2022-09-09T04:22:12;10.70;;;3.65;;
7669;SDS011;3877;42.562;27.636;2022-09-09T04:24:39;8.45;;;3.53;;
7669;SDS011;3877;42.562;27.636;2022-09-09T04:27:08;8.77;;;4.22;;
7669;SDS011;3877;42.562;27.636;2022-09-09T04:29:35;16.00;;;4.00;;
7669;SDS011;3877;42.562;27.636;2022-09-09T04:32:03;10.48;;;3.75;;
7669;SDS011;3877;42.562;27.636;2022-09-09T04:34:31;7.03;;;3.75;;
7669;SDS011;3877;42.562;27.636;2022-09-09T04:36:58;14.43;;;4.60;;
7669;SDS011;3877;42.562;27.636;2022-09-09T04:39:25;6.13;;;3.90;;
7669;SDS011;3877;42.562;27.636;2022-09-09T04:41:52;8.48;;;3.72;;
7669;SDS011;3877;42.562;27.636;2022-09-09T04:44:22;9.25;;;4.63;;
7669;SDS011;3877;42.562;27.636;2022-09-09T04:46:49;8.65;;;4.18;;
7669;SDS011;3877;42.562;27.636;2022-09-09T04:49:17;5.97;;;3.75;;
7669;SDS011;3877;42.562;27.636;2022-09-09T04:51:44;4.88;;;3.80;;
7669;SDS011;3877;42.562;27.636;2022-09-09T04:54:12;6.25;;;4.07;;
7669;SDS011;3877;42.562;27.636;2022-09-09T04:56:39;9.13;;;4.30;;
7669;SDS011;3877;42.562;27.636;2022-09-09T04:59:07;6.57;;;3.92;;
7669;SDS011;3877;42.562;27.636;2022-09-09T05:01:36;14.90;;;4.05;;
7669;SDS011;3877;42.562;27.636;2022-09-09T05:04:03;8.15;;;4.10;;
7669;SDS011;3877;42.562;27.636;2022-09-09T05:06:31;10.07;;;4.78;;
7669;SDS011;3877;42.562;27.636;2022-09-09T05:08:58;8.85;;;3.92;;
7669;SDS011;3877;42.562;27.636;2022-09-09T05:11:26;8.07;;;4.75;;
7669;SDS011;3877;42.562;27.636;2022-09-09T05:13:55;7.25;;;4.63;;
7669;SDS011;3877;42.562;27.636;2022-09-09T05:16:22;9.45;;;4.63;;
7669;SDS011;3877;42.562;27.636;2022-09-09T05:18:51;10.15;;;4.20;;
7669;SDS011;3877;42.562;27.636;2022-09-09T05:21:19;8.65;;;4.25;;
7669;SDS011;3877;42.562;27.636;2022-09-09T05:23:48;7.47;;;3.97;;
7669;SDS011;3877;42.562;27.636;2022-09-09T05:26:16;8.90;;;3.88;;
7669;SDS011;3877;42.562;27.636;2022-09-09T05:28:46;10.32;;;3.65;;
7669;SDS011;3877;42.562;27.636;2022-09-09T05:31:14;9.50;;;3.30;;
7669;SDS011;3877;42.562;27.636;2022-09-09T05:33:43;6.18;;;3.85;;
7669;SDS011;3877;42.562;27.636;2022-09-09T05:36:14;4.93;;;3.55;;
7669;SDS011;3877;42.562;27.636;2022-09-09T05:38:42;6.18;;;3.40;;
7669;SDS011;3877;42.562;27.636;2022-09-09T05:41:10;9.10;;;4.32;;
7669;SDS011;3877;42.562;27.636;2022-09-09T05:43:40;5.93;;;3.70;;
7669;SDS011;3877;42.562;27.636;2022-09-09T05:46:10;7.85;;;4.28;;
7669;SDS011;3877;42.562;27.636;2022-09-09T05:48:39;6.90;;;3.65;;
7669;SDS011;3877;42.562;27.636;2022-09-09T05:51:08;7.40;;;3.40;;
7669;SDS011;3877;42.562;27.636;2022-09-09T05:53:39;6.30;;;3.78;;
7669;SDS011;3877;42.562;27.636;2022-09-09T05:56:08;5.20;;;3.78;;
7669;SDS011;3877;42.562;27.636;2022-09-09T05:58:37;5.55;;;3.42;;
7669;SDS011;3877;42.562;27.636;2022-09-09T06:01:06;7.75;;;3.60;;
7669;SDS011;3877;42.562;27.636;2022-09-09T06:03:35;7.25;;;3.20;;
7669;SDS011;3877;42.562;27.636;2022-09-09T06:06:04;6.07;;;4.00;;
7669;SDS011;3877;42.562;27.636;2022-09-09T06:08:33;6.22;;;3.42;;
7669;SDS011;3877;42.562;27.636;2022-09-09T06:11:04;11.45;;;3.78;;
7669;SDS011;3877;42.562;27.636;2022-09-09T06:13:32;8.82;;;3.70;;
7669;SDS011;3877;42.562;27.636;2022-09-09T06:16:00;7.90;;;3.65;;
7669;SDS011;3877;42.562;27.636;2022-09-09T06:18:28;7.65;;;3.72;;
7669;SDS011;3877;42.562;27.636;2022-09-09T06:20:56;8.98;;;4.05;;
7669;SDS011;3877;42.562;27.636;2022-09-09T06:23:25;7.88;;;3.13;;
7669;SDS011;3877;42.562;27.636;2022-09-09T06:26:00;5.03;;;3.15;;
7669;SDS011;3877;42.562;27.636;2022-09-09T06:28:32;3.50;;;2.92;;
7669;SDS011;3877;42.562;27.636;2022-09-09T06:30:59;8.30;;;3.28;;
7669;SDS011;3877;42.562;27.636;2022-09-09T06:33:30;3.05;;;2.58;;
7669;SDS011;3877;42.562;27.636;2022-09-09T06:36:00;9.52;;;3.00;;
7669;SDS011;3877;42.562;27.636;2022-09-09T06:38:28;4.47;;;2.80;;
7669;SDS011;3877;42.562;27.636;2022-09-09T06:40:56;4.75;;;2.90;;
7669;SDS011;3877;42.562;27.636;2022-09-09T06:43:25;4.50;;;3.28;;
7669;SDS011;3877;42.562;27.636;2022-09-09T06:45:55;7.75;;;2.95;;
7669;SDS011;3877;42.562;27.636;2022-09-09T06:48:23;18.20;;;3.15;;
7669;SDS011;3877;42.562;27.636;2022-09-09T06:50:59;3.00;;;2.40;;
7669;SDS011;3877;42.562;27.636;2022-09-09T06:53:28;9.57;;;2.83;;
7669;SDS011;3877;42.562;27.636;2022-09-09T06:55:55;5.53;;;2.63;;
7669;SDS011;3877;42.562;27.636;2022-09-09T06:58:22;4.78;;;2.70;;
7669;SDS011;3877;42.562;27.636;2022-09-09T07:00:49;5.22;;;3.10;;
7669;SDS011;3877;42.562;27.636;2022-09-09T07:03:18;6.10;;;2.90;;
7669;SDS011;3877;42.562;27.636;2022-09-09T07:05:53;7.68;;;2.72;;
7669;SDS011;3877;42.562;27.636;2022-09-09T07:08:21;8.10;;;2.70;;
7669;SDS011;3877;42.562;27.636;2022-09-09T07:10:50;7.28;;;2.60;;
7669;SDS011;3877;42.562;27.636;2022-09-09T07:13:19;4.93;;;2.70;;
7669;SDS011;3877;42.562;27.636;2022-09-09T07:15:50;6.38;;;2.75;;
7669;SDS011;3877;42.562;27.636;2022-09-09T07:18:18;7.28;;;3.25;;
7669;SDS011;3877;42.562;27.636;2022-09-09T07:20:52;11.35;;;3.03;;
7669;SDS011;3877;42.562;27.636;2022-09-09T07:23:20;4.88;;;2.70;;
7669;SDS011;3877;42.562;27.636;2022-09-09T07:25:48;6.97;;;3.05;;
7669;SDS011;3877;42.562;27.636;2022-09-09T07:28:16;6.30;;;2.80;;
7669;SDS011;3877;42.562;27.636;2022-09-09T07:30:43;5.55;;;2.80;;
7669;SDS011;3877;42.562;27.636;2022-09-09T07:33:20;5.20;;;2.70;;
7669;SDS011;3877;42.562;27.636;2022-09-09T07:35:48;8.18;;;3.15;;
7669;SDS011;3877;42.562;27.636;2022-09-09T07:38:15;7.35;;;3.50;;
7669;SDS011;3877;42.562;27.636;2022-09-09T07:40:42;4.60;;;3.10;;
7669;SDS011;3877;42.562;27.636;2022-09-09T07:43:10;8.80;;;3.22;;
7669;SDS011;3877;42.562;27.636;2022-09-09T07:45:38;5.90;;;2.78;;
7669;SDS011;3877;42.562;27.636;2022-09-09T07:48:05;4.80;;;2.90;;
7669;SDS011;3877;42.562;27.636;2022-09-09T07:50:35;9.40;;;3.28;;
7669;SDS011;3877;42.562;27.636;2022-09-09T07:53:02;4.82;;;3.67;;
7669;SDS011;3877;42.562;27.636;2022-09-09T07:55:30;7.20;;;3.67;;
7669;SDS011;3877;42.562;27.636;2022-09-09T07:57:58;4.60;;;3.25;;
7669;SDS011;3877;42.562;27.636;2022-09-09T08:00:25;8.13;;;3.10;;
7669;SDS011;3877;42.562;27.636;2022-09-09T08:02:53;6.75;;;3.10;;
7669;SDS011;3877;42.562;27.636;2022-09-09T08:05:20;7.63;;;3.50;;
7669;SDS011;3877;42.562;27.636;2022-09-09T08:07:50;6.78;;;3.40;;
7669;SDS011;3877;42.562;27.636;2022-09-09T08:10:17;6.47;;;3.17;;
7669;SDS011;3877;42.562;27.636;2022-09-09T08:12:44;6.07;;;2.80;;
7669;SDS011;3877;42.562;27.636;2022-09-09T08:15:12;7.43;;;2.95;;
7669;SDS011;3877;42.562;27.636;2022-09-09T08:17:39;7.63;;;3.25;;
7669;SDS011;3877;42.562;27.636;2022-09-09T08:20:07;8.93;;;2.60;;
7669;SDS011;3877;42.562;27.636;2022-09-09T08:22:34;5.47;;;3.00;;
7669;SDS011;3877;42.562;27.636;2022-09-09T08:25:04;10.70;;;3.05;;
7669;SDS011;3877;42.562;27.636;2022-09-09T08:27:33;5.68;;;3.08;;
7669;SDS011;3877;42.562;27.636;2022-09-09T08:30:02;12.65;;;3.63;;
7669;SDS011;3877;42.562;27.636;2022-09-09T08:32:30;4.72;;;2.58;;
7669;SDS011;3877;42.562;27.636;2022-09-09T08:34:57;4.47;;;2.40;;
7669;SDS011;3877;42.562;27.636;2022-09-09T08:37:24;5.95;;;2.17;;
7669;SDS011;3877;42.562;27.636;2022-09-09T08:39:52;4.18;;;2.30;;
7669;SDS011;3877;42.562;27.636;2022-09-09T08:42:35;4.20;;;2.45;;
7669;SDS011;3877;42.562;27.636;2022-09-09T08:45:18;5.07;;;2.50;;
7669;SDS011;3877;42.562;27.636;2022-09-09T08:47:57;5.03;;;2.35;;
7669;SDS011;3877;42.562;27.636;2022-09-09T08:50:39;16.27;;;2.80;;
7669;SDS011;3877;42.562;27.636;2022-09-09T08:53:10;10.38;;;2.97;;
7669;SDS011;3877;42.562;27.636;2022-09-09T08:55:43;7.25;;;2.63;;
7669;SDS011;3877;42.562;27.636;2022-09-09T08:58:16;6.90;;;2.83;;
7669;SDS011;3877;42.562;27.636;2022-09-09T09:00:53;7.00;;;2.80;;
7669;SDS011;3877;42.562;27.636;2022-09-09T09:03:38;6.80;;;2.38;;
7669;SDS011;3877;42.562;27.636;2022-09-09T09:06:15;5.22;;;2.50;;
7669;SDS011;3877;42.562;27.636;2022-09-09T09:08:56;4.38;;;2.38;;
7669;SDS011;3877;42.562;27.636;2022-09-09T09:11:34;6.13;;;2.40;;
7669;SDS011;3877;42.562;27.636;2022-09-09T09:14:07;9.63;;;2.60;;
7669;SDS011;3877;42.562;27.636;2022-09-09T09:16:42;5.32;;;2.60;;
7669;SDS011;3877;42.562;27.636;2022-09-09T09:19:17;4.18;;;1.92;;
7669;SDS011;3877;42.562;27.636;2022-09-09T09:21:48;3.95;;;2.20;;
7669;SDS011;3877;42.562;27.636;2022-09-09T09:24:20;12.90;;;4.75;;
7669;SDS011;3877;42.562;27.636;2022-09-09T09:26:53;5.25;;;2.08;;
7669;SDS011;3877;42.562;27.636;2022-09-09T09:29:23;2.63;;;1.83;;
7669;SDS011;3877;42.562;27.636;2022-09-09T09:31:53;5.57;;;2.30;;
7669;SDS011;3877;42.562;27.636;2022-09-09T09:34:23;5.20;;;2.35;;
7669;SDS011;3877;42.562;27.636;2022-09-09T09:36:52;2.65;;;2.00;;
7669;SDS011;3877;42.562;27.636;2022-09-09T09:39:22;4.80;;;2.55;;
7669;SDS011;3877;42.562;27.636;2022-09-09T09:41:51;4.18;;;2.22;;
7669;SDS011;3877;42.562;27.636;2022-09-09T09:44:24;5.50;;;2.17;;
7669;SDS011;3877;42.562;27.636;2022-09-09T09:46:53;4.50;;;2.05;;
7669;SDS011;3877;42.562;27.636;2022-09-09T09:49:31;3.50;;;1.80;;
7669;SDS011;3877;42.562;27.636;2022-09-09T09:51:59;6.13;;;1.83;;
7669;SDS011;3877;42.562;27.636;2022-09-09T09:54:28;3.47;;;1.98;;
7669;SDS011;3877;42.562;27.636;2022-09-09T09:57:07;6.47;;;1.55;;
7669;SDS011;3877;42.562;27.636;2022-09-09T09:59:37;3.15;;;1.60;;
7669;SDS011;3877;42.562;27.636;2022-09-09T10:02:10;4.32;;;2.10;;
7669;SDS011;3877;42.562;27.636;2022-09-09T10:04:41;3.50;;;1.65;;
7669;SDS011;3877;42.562;27.636;2022-09-09T10:07:10;5.22;;;2.13;;
7669;SDS011;3877;42.562;27.636;2022-09-09T10:09:38;5.13;;;2.10;;
7669;SDS011;3877;42.562;27.636;2022-09-09T10:12:10;2.95;;;1.77;;
7669;SDS011;3877;42.562;27.636;2022-09-09T10:14:52;4.00;;;1.70;;
7669;SDS011;3877;42.562;27.636;2022-09-09T10:17:29;3.80;;;2.08;;
7669;SDS011;3877;42.562;27.636;2022-09-09T10:20:13;5.68;;;2.17;;
7669;SDS011;3877;42.562;27.636;2022-09-09T10:22:51;5.95;;;2.10;;
7669;SDS011;3877;42.562;27.636;2022-09-09T10:25:30;3.83;;;2.25;;
7669;SDS011;3877;42.562;27.636;2022-09-09T10:31:04;4.05;;;1.73;;
7669;SDS011;3877;42.562;27.636;2022-09-09T10:33:45;8.02;;;2.20;;
7669;SDS011;3877;42.562;27.636;2022-09-09T10:36:18;6.30;;;1.83;;
7669;SDS011;3877;42.562;27.636;2022-09-09T10:38:47;4.75;;;1.52;;
7669;SDS011;3877;42.562;27.636;2022-09-09T10:41:21;6.03;;;1.92;;
7669;SDS011;3877;42.562;27.636;2022-09-09T10:44:02;5.22;;;1.80;;
7669;SDS011;3877;42.562;27.636;2022-09-09T10:46:46;3.30;;;1.75;;
7669;SDS011;3877;42.562;27.636;2022-09-09T10:49:32;5.43;;;1.63;;
7669;SDS011;3877;42.562;27.636;2022-09-09T10:52:15;3.97;;;1.75;;
7669;SDS011;3877;42.562;27.636;2022-09-09T10:54:54;4.18;;;1.80;;
7669;SDS011;3877;42.562;27.636;2022-09-09T10:57:28;5.80;;;1.80;;
7669;SDS011;3877;42.562;27.636;2022-09-09T11:00:03;6.57;;;2.13;;
7669;SDS011;3877;42.562;27.636;2022-09-09T11:02:33;2.38;;;1.55;;
7669;SDS011;3877;42.562;27.636;2022-09-09T11:05:02;7.20;;;1.67;;
7669;SDS011;3877;42.562;27.636;2022-09-09T11:07:36;10.48;;;2.40;;
7669;SDS011;3877;42.562;27.636;2022-09-09T11:10:14;8.63;;;2.17;;
7669;SDS011;3877;42.562;27.636;2022-09-09T11:12:50;7.03;;;1.80;;
7669;SDS011;3877;42.562;27.636;2022-09-09T11:15:22;4.60;;;1.83;;
7669;SDS011;3877;42.562;27.636;2022-09-09T11:18:00;6.63;;;1.90;;
7669;SDS011;3877;42.562;27.636;2022-09-09T11:20:31;6.25;;;2.20;;
7669;SDS011;3877;42.562;27.636;2022-09-09T11:22:59;6.25;;;2.00;;
7669;SDS011;3877;42.562;27.636;2022-09-09T11:25:32;5.65;;;2.10;;
7669;SDS011;3877;42.562;27.636;2022-09-09T11:28:16;5.78;;;2.00;;
7669;SDS011;3877;42.562;27.636;2022-09-09T11:31:03;11.20;;;2.45;;
7669;SDS011;3877;42.562;27.636;2022-09-09T11:34:01;6.40;;;2.60;;
7669;SDS011;3877;42.562;27.636;2022-09-09T11:36:51;4.20;;;2.28;;
7669;SDS011;3877;42.562;27.636;2022-09-09T11:39:43;4.95;;;2.20;;
7669;SDS011;3877;42.562;27.636;2022-09-09T11:42:20;6.97;;;2.42;;
7669;SDS011;3877;42.562;27.636;2022-09-09T11:44:49;4.90;;;1.90;;
7669;SDS011;3877;42.562;27.636;2022-09-09T11:47:22;11.57;;;1.95;;
7669;SDS011;3877;42.562;27.636;2022-09-09T11:50:06;8.60;;;1.90;;
7669;SDS011;3877;42.562;27.636;2022-09-09T11:52:37;5.70;;;2.03;;
7669;SDS011;3877;42.562;27.636;2022-09-09T11:55:11;3.13;;;1.90;;
7669;SDS011;3877;42.562;27.636;2022-09-09T11:57:56;3.38;;;2.10;;
7669;SDS011;3877;42.562;27.636;2022-09-09T12:00:31;4.72;;;2.13;;
7669;SDS011;3877;42.562;27.636;2022-09-09T12:03:02;4.28;;;2.10;;
7669;SDS011;3877;42.562;27.636;2022-09-09T12:05:39;2.55;;;1.90;;
7669;SDS011;3877;42.562;27.636;2022-09-09T12:08:11;9.20;;;2.63;;
7669;SDS011;3877;42.562;27.636;2022-09-09T12:10:52;7.97;;;2.45;;
7669;SDS011;3877;42.562;27.636;2022-09-09T12:13:21;8.02;;;2.40;;
7669;SDS011;3877;42.562;27.636;2022-09-09T12:15:51;5.60;;;2.10;;
7669;SDS011;3877;42.562;27.636;2022-09-09T12:18:21;19.75;;;2.72;;
7669;SDS011;3877;42.562;27.636;2022-09-09T12:20:54;6.60;;;2.55;;
7669;SDS011;3877;42.562;27.636;2022-09-09T12:23:34;5.40;;;2.55;;
7669;SDS011;3877;42.562;27.636;2022-09-09T12:26:13;9.38;;;2.72;;
7669;SDS011;3877;42.562;27.636;2022-09-09T12:28:52;6.22;;;2.17;;
7669;SDS011;3877;42.562;27.636;2022-09-09T12:31:31;6.50;;;2.60;;
7669;SDS011;3877;42.562;27.636;2022-09-09T12:34:09;5.50;;;2.30;;
7669;SDS011;3877;42.562;27.636;2022-09-09T12:36:41;6.05;;;2.10;;
7669;SDS011;3877;42.562;27.636;2022-09-09T12:39:14;6.07;;;2.50;;
7669;SDS011;3877;42.562;27.636;2022-09-09T12:41:50;7.15;;;2.55;;
7669;SDS011;3877;42.562;27.636;2022-09-09T12:44:22;5.53;;;2.33;;
7669;SDS011;3877;42.562;27.636;2022-09-09T12:46:50;6.93;;;2.60;;
7669;SDS011;3877;42.562;27.636;2022-09-09T12:49:27;5.72;;;2.75;;
7669;SDS011;3877;42.562;27.636;2022-09-09T12:52:02;4.55;;;2.35;;
7669;SDS011;3877;42.562;27.636;2022-09-09T12:54:31;4.70;;;2.65;;
7669;SDS011;3877;42.562;27.636;2022-09-09T12:57:00;5.07;;;2.50;;
7669;SDS011;3877;42.562;27.636;2022-09-09T12:59:34;4.68;;;2.60;;
7669;SDS011;3877;42.562;27.636;2022-09-09T13:02:10;7.35;;;3.05;;
7669;SDS011;3877;42.562;27.636;2022-09-09T13:04:44;6.15;;;2.80;;
7669;SDS011;3877;42.562;27.636;2022-09-09T13:07:14;8.25;;;2.35;;
7669;SDS011;3877;42.562;27.636;2022-09-09T13:09:42;6.05;;;2.88;;
7669;SDS011;3877;42.562;27.636;2022-09-09T13:12:11;5.78;;;2.58;;
7669;SDS011;3877;42.562;27.636;2022-09-09T13:14:42;5.30;;;2.72;;
7669;SDS011;3877;42.562;27.636;2022-09-09T13:17:21;4.82;;;2.78;;
7669;SDS011;3877;42.562;27.636;2022-09-09T13:19:50;11.70;;;2.88;;
7669;SDS011;3877;42.562;27.636;2022-09-09T13:22:22;6.93;;;3.28;;
7669;SDS011;3877;42.562;27.636;2022-09-09T13:24:59;5.28;;;2.72;;
7669;SDS011;3877;42.562;27.636;2022-09-09T13:27:29;4.30;;;2.92;;
7669;SDS011;3877;42.562;27.636;2022-09-09T13:29:59;11.18;;;3.00;;
7669;SDS011;3877;42.562;27.636;2022-09-09T13:32:28;4.28;;;2.42;;
7669;SDS011;3877;42.562;27.636;2022-09-09T13:34:57;7.72;;;2.55;;
7669;SDS011;3877;42.562;27.636;2022-09-09T13:37:28;6.97;;;2.90;;
7669;SDS011;3877;42.562;27.636;2022-09-09T13:40:00;9.10;;;2.70;;
7669;SDS011;3877;42.562;27.636;2022-09-09T13:42:29;7.10;;;2.97;;
7669;SDS011;3877;42.562;27.636;2022-09-09T13:45:00;9.50;;;2.80;;
7669;SDS011;3877;42.562;27.636;2022-09-09T13:47:30;8.65;;;3.13;;
7669;SDS011;3877;42.562;27.636;2022-09-09T13:50:09;5.45;;;2.78;;
7669;SDS011;3877;42.562;27.636;2022-09-09T13:52:47;9.60;;;2.75;;
7669;SDS011;3877;42.562;27.636;2022-09-09T13:55:18;4.68;;;2.53;;
7669;SDS011;3877;42.562;27.636;2022-09-09T13:57:51;5.03;;;2.80;;
7669;SDS011;3877;42.562;27.636;2022-09-09T14:00:20;6.50;;;2.63;;
7669;SDS011;3877;42.562;27.636;2022-09-09T14:02:48;7.95;;;2.92;;
7669;SDS011;3877;42.562;27.636;2022-09-09T14:05:15;6.50;;;2.85;;
7669;SDS011;3877;42.562;27.636;2022-09-09T14:07:43;7.85;;;2.38;;
7669;SDS011;3877;42.562;27.636;2022-09-09T14:10:12;8.07;;;3.00;;
7669;SDS011;3877;42.562;27.636;2022-09-09T14:12:40;14.15;;;3.10;;
7669;SDS011;3877;42.562;27.636;2022-09-09T14:15:09;5.43;;;2.40;;
7669;SDS011;3877;42.562;27.636;2022-09-09T14:17:38;4.72;;;3.03;;
7669;SDS011;3877;42.562;27.636;2022-09-09T14:20:06;8.63;;;2.70;;
7669;SDS011;3877;42.562;27.636;2022-09-09T14:22:35;8.77;;;2.80;;
7669;SDS011;3877;42.562;27.636;2022-09-09T14:25:04;8.07;;;2.90;;
7669;SDS011;3877;42.562;27.636;2022-09-09T14:27:34;8.57;;;2.70;;
7669;SDS011;3877;42.562;27.636;2022-09-09T14:30:01;6.00;;;2.85;;
7669;SDS011;3877;42.562;27.636;2022-09-09T14:32:29;5.30;;;2.67;;
7669;SDS011;3877;42.562;27.636;2022-09-09T14:34:56;5.32;;;2.65;;
7669;SDS011;3877;42.562;27.636;2022-09-09T14:37:24;4.30;;;2.58;;
7669;SDS011;3877;42.562;27.636;2022-09-09T14:39:51;8.40;;;2.95;;
7669;SDS011;3877;42.562;27.636;2022-09-09T14:42:19;7.63;;;2.83;;
7669;SDS011;3877;42.562;27.636;2022-09-09T14:44:48;6.40;;;2.83;;
7669;SDS011;3877;42.562;27.636;2022-09-09T14:47:16;5.25;;;2.83;;
7669;SDS011;3877;42.562;27.636;2022-09-09T14:49:43;7.32;;;2.53;;
7669;SDS011;3877;42.562;27.636;2022-09-09T14:52:11;7.07;;;2.97;;
7669;SDS011;3877;42.562;27.636;2022-09-09T14:54:38;11.07;;;2.88;;
7669;SDS011;3877;42.562;27.636;2022-09-09T14:57:06;5.63;;;2.72;;
7669;SDS011;3877;42.562;27.636;2022-09-09T14:59:33;5.70;;;2.50;;
7669;SDS011;3877;42.562;27.636;2022-09-09T15:02:02;5.78;;;2.45;;
7669;SDS011;3877;42.562;27.636;2022-09-09T15:04:29;4.93;;;2.40;;
7669;SDS011;3877;42.562;27.636;2022-09-09T15:06:56;6.55;;;2.83;;
7669;SDS011;3877;42.562;27.636;2022-09-09T15:09:24;4.85;;;2.53;;
7669;SDS011;3877;42.562;27.636;2022-09-09T15:11:51;4.25;;;2.60;;
7669;SDS011;3877;42.562;27.636;2022-09-09T15:14:19;8.45;;;3.03;;
7669;SDS011;3877;42.562;27.636;2022-09-09T15:16:46;6.65;;;3.08;;
7669;SDS011;3877;42.562;27.636;2022-09-09T15:19:15;9.20;;;2.95;;
7669;SDS011;3877;42.562;27.636;2022-09-09T15:21:42;5.10;;;2.70;;
7669;SDS011;3877;42.562;27.636;2022-09-09T15:24:10;6.68;;;2.70;;
7669;SDS011;3877;42.562;27.636;2022-09-09T15:26:38;4.68;;;2.50;;
7669;SDS011;3877;42.562;27.636;2022-09-09T15:29:06;7.15;;;2.83;;
7669;SDS011;3877;42.562;27.636;2022-09-09T15:31:34;7.82;;;3.10;;